createdAt,value
2023-01-21T00:01:44.205Z,15.38
2023-01-21T00:03:46.205Z,16.70
2023-01-21T00:05:47.956Z,15.98
2023-01-21T00:07:49.543Z,22.52
2023-01-21T00:09:50.993Z,13.45
2023-01-21T00:11:52.496Z,20.23
2023-01-21T00:13:54.095Z,14.15
2023-01-21T00:15:55.680Z,14.57
2023-01-21T00:17:57.207Z,16.02
2023-01-21T00:19:58.705Z,14.43
2023-01-21T00:22:00.251Z,12.07
2023-01-21T00:24:01.766Z,15.45
2023-01-21T00:26:05.556Z,15.07
2023-01-21T00:28:07.131Z,22.67
2023-01-21T00:30:10.685Z,24.92
2023-01-21T00:32:12.379Z,32.63
2023-01-21T00:34:14.228Z,16.33
2023-01-21T00:36:19.092Z,22.63
2023-01-21T00:38:20.601Z,33.75
2023-01-21T00:40:22.177Z,31.95
2023-01-21T00:42:23.751Z,18.80
2023-01-21T00:44:25.325Z,24.35
2023-01-21T00:46:28.546Z,17.52
2023-01-21T00:48:30.130Z,15.70
2023-01-21T00:50:31.670Z,22.55
2023-01-21T00:52:33.185Z,18.13
2023-01-21T00:54:34.685Z,19.30
2023-01-21T00:56:36.554Z,17.42
2023-01-21T00:58:38.368Z,18.83
2023-01-21T01:00:39.941Z,22.58
2023-01-21T01:02:41.490Z,19.58
2023-01-21T01:04:43.062Z,11.23
2023-01-21T01:06:44.575Z,20.60
2023-01-21T01:08:47.201Z,25.30
2023-01-21T01:10:48.765Z,14.10
2023-01-21T01:12:50.362Z,18.88
2023-01-21T01:14:51.854Z,18.67
2023-01-21T01:16:53.371Z,13.20
2023-01-21T01:18:55.559Z,22.77
2023-01-21T01:20:57.314Z,16.52
2023-01-21T01:22:58.852Z,16.48
2023-01-21T01:25:00.482Z,12.05
2023-01-21T01:27:02.049Z,11.60
2023-01-21T01:29:06.928Z,13.95
2023-01-21T01:31:11.447Z,15.40
2023-01-21T01:33:12.995Z,14.38
2023-01-21T01:35:14.605Z,14.23
2023-01-21T01:37:16.102Z,10.27
2023-01-21T01:39:17.601Z,17.73
2023-01-21T01:41:23.161Z,12.63
2023-01-21T01:43:46.446Z,10.00
2023-01-21T01:45:49.100Z,13.02
2023-01-21T01:48:14.031Z,12.35
2023-01-21T01:50:19.147Z,11.52
2023-01-21T01:52:22.004Z,24.20
2023-01-21T01:54:33.527Z,10.75
2023-01-21T01:56:37.559Z,8.57
2023-01-21T01:58:39.892Z,10.57
2023-01-21T02:00:41.669Z,13.65
2023-01-21T02:03:04.542Z,16.75
2023-01-21T02:05:09.191Z,20.00
2023-01-21T02:07:11.181Z,11.88
2023-01-21T02:09:12.731Z,9.68
2023-01-21T02:11:16.592Z,9.90
2023-01-21T02:13:18.231Z,12.75
2023-01-21T02:15:19.974Z,18.42
2023-01-21T02:17:42.754Z,9.20
2023-01-21T02:19:53.590Z,16.77
2023-01-21T02:22:37.095Z,8.77
2023-01-21T02:24:53.538Z,7.18
2023-01-21T02:27:30.146Z,7.43
2023-01-21T02:29:47.436Z,5.55
2023-01-21T02:32:06.867Z,8.85
2023-01-21T02:34:23.057Z,7.78
2023-01-21T02:36:43.462Z,6.20
2023-01-21T02:39:09.523Z,9.77
2023-01-21T02:41:25.391Z,7.22
2023-01-21T02:43:36.435Z,7.25
2023-01-21T02:45:54.950Z,7.47
2023-01-21T02:48:29.739Z,6.60
2023-01-21T02:50:35.936Z,10.85
2023-01-21T02:52:37.488Z,9.60
2023-01-21T02:54:38.918Z,7.80
2023-01-21T02:56:42.928Z,11.25
2023-01-21T02:58:52.507Z,10.75
2023-01-21T03:05:48.198Z,8.27
2023-01-21T03:08:19.923Z,8.15
2023-01-21T03:10:37.101Z,13.52
2023-01-21T03:12:57.098Z,7.10
2023-01-21T03:15:29.425Z,15.93
2023-01-21T03:17:41.865Z,5.22
2023-01-21T03:19:49.854Z,9.10
2023-01-21T03:21:53.772Z,11.75
2023-01-21T03:23:57.730Z,10.93
2023-01-21T03:26:00.726Z,11.93
2023-01-21T03:28:08.141Z,10.15
2023-01-21T03:30:18.705Z,9.60
2023-01-21T03:32:21.902Z,7.35
2023-01-21T03:34:26.818Z,4.03
2023-01-21T03:36:55.993Z,11.45
2023-01-21T03:38:59.442Z,10.73
2023-01-21T03:41:07.703Z,11.35
2023-01-21T03:43:10.112Z,13.60
2023-01-21T03:45:12.316Z,9.13
2023-01-21T03:47:25.335Z,9.98
2023-01-21T03:49:42.282Z,11.88
2023-01-21T03:51:51.554Z,11.82
2023-01-21T03:53:57.262Z,9.45
2023-01-21T03:56:00.039Z,14.48
2023-01-21T03:58:01.756Z,9.98
2023-01-21T04:00:05.173Z,11.57
2023-01-21T04:02:06.771Z,11.32
2023-01-21T04:04:09.576Z,11.90
2023-01-21T04:06:15.697Z,16.08
2023-01-21T04:08:17.314Z,7.88
2023-01-21T04:10:19.040Z,12.57
2023-01-21T04:12:20.725Z,15.98
2023-01-21T04:14:22.250Z,9.95
2023-01-21T04:16:23.822Z,11.80
2023-01-21T04:18:25.417Z,16.65
2023-01-21T04:20:26.924Z,11.07
2023-01-21T04:22:28.420Z,11.60
2023-01-21T04:24:29.961Z,12.98
2023-01-21T04:26:31.586Z,16.00
2023-01-21T04:28:33.397Z,13.60
2023-01-21T04:30:35.019Z,14.27
2023-01-21T04:32:37.483Z,14.02
2023-01-21T04:34:38.973Z,14.10
2023-01-21T04:36:40.485Z,17.35
2023-01-21T04:38:42.022Z,17.10
2023-01-21T04:40:43.964Z,15.63
2023-01-21T04:42:45.518Z,16.15
2023-01-21T04:44:47.636Z,11.45
2023-01-21T04:46:49.219Z,15.73
2023-01-21T04:48:50.818Z,11.75
2023-01-21T04:50:52.352Z,12.95
2023-01-21T04:52:53.944Z,12.32
2023-01-21T04:54:55.413Z,7.18
2023-01-21T04:56:56.923Z,8.15
2023-01-21T04:58:58.430Z,15.02
2023-01-21T05:01:00.012Z,10.68
2023-01-21T05:03:01.564Z,11.15
2023-01-21T05:05:03.130Z,13.70
2023-01-21T05:07:05.484Z,11.23
2023-01-21T05:09:07.007Z,10.05
2023-01-21T05:11:09.645Z,13.90
2023-01-21T05:13:11.151Z,8.60
2023-01-21T05:15:12.749Z,13.25
2023-01-21T05:17:14.262Z,13.68
2023-01-21T05:19:15.853Z,14.40
2023-01-21T05:21:17.409Z,17.35
2023-01-21T05:23:18.992Z,10.23
2023-01-21T05:25:20.526Z,12.00
2023-01-21T05:27:22.126Z,10.60
2023-01-21T05:29:23.735Z,15.05
2023-01-21T05:31:28.469Z,18.70
2023-01-21T05:33:34.391Z,14.57
2023-01-21T05:35:36.006Z,21.63
2023-01-21T05:37:37.866Z,19.23
2023-01-21T05:39:39.380Z,17.10
2023-01-21T05:41:41.023Z,21.27
2023-01-21T05:43:42.525Z,16.13
2023-01-21T05:45:44.041Z,11.65
2023-01-21T05:47:45.531Z,24.40
2023-01-21T05:49:47.043Z,12.80
2023-01-21T05:51:48.569Z,10.43
2023-01-21T05:53:50.291Z,10.13
2023-01-21T05:55:56.363Z,12.75
2023-01-21T05:57:57.889Z,13.90
2023-01-21T05:59:59.527Z,12.40
2023-01-21T06:02:01.139Z,4.63
2023-01-21T06:04:02.679Z,14.95
2023-01-21T06:06:04.693Z,12.25
2023-01-21T06:08:06.222Z,8.23
2023-01-21T06:10:08.460Z,6.70
2023-01-21T06:12:10.126Z,13.77
2023-01-21T06:14:12.534Z,10.30
2023-01-21T06:16:14.067Z,11.07
2023-01-21T06:18:15.750Z,8.85
2023-01-21T06:20:17.559Z,12.80
2023-01-21T06:22:20.654Z,11.73
2023-01-21T06:24:22.161Z,46.88
2023-01-21T06:26:25.006Z,6.60
2023-01-21T06:28:29.249Z,12.23
2023-01-21T06:30:30.813Z,9.05
2023-01-21T06:32:32.961Z,10.38
2023-01-21T06:34:34.486Z,12.65
2023-01-21T06:36:36.430Z,9.90
2023-01-21T06:38:38.023Z,13.65
2023-01-21T06:40:39.649Z,9.98
2023-01-21T06:42:41.318Z,12.88
2023-01-21T06:44:42.845Z,6.93
2023-01-21T06:46:52.173Z,19.10
2023-01-21T06:49:01.247Z,4.60
2023-01-21T06:51:03.239Z,16.05
2023-01-21T06:53:04.801Z,9.77
2023-01-21T06:55:06.707Z,7.97
2023-01-21T06:57:08.225Z,16.77
2023-01-21T06:59:10.079Z,6.75
2023-01-21T07:01:11.731Z,15.02
2023-01-21T07:03:13.302Z,22.45
2023-01-21T07:05:15.485Z,7.85
2023-01-21T07:07:17.649Z,7.22
2023-01-21T07:09:19.715Z,14.40
2023-01-21T07:11:21.196Z,9.55
2023-01-21T07:13:23.438Z,6.28
2023-01-21T07:15:25.000Z,9.70
2023-01-21T07:17:26.559Z,7.85
2023-01-21T07:19:28.164Z,7.95
2023-01-21T07:21:29.712Z,14.05
2023-01-21T07:23:31.303Z,9.40
2023-01-21T07:25:32.930Z,4.78
2023-01-21T07:27:34.443Z,8.55
2023-01-21T07:29:35.988Z,9.02
2023-01-21T07:31:37.641Z,17.10
2023-01-21T07:33:39.999Z,15.73
2023-01-21T07:35:41.552Z,12.95
2023-01-21T07:37:43.150Z,18.83
2023-01-21T07:39:44.680Z,9.82
2023-01-21T07:41:46.736Z,7.32
2023-01-21T07:43:49.058Z,9.55
2023-01-21T07:45:50.749Z,27.42
2023-01-21T07:47:52.302Z,42.40
2023-01-21T07:49:53.826Z,13.30
2023-01-21T07:51:58.534Z,15.90
2023-01-21T07:54:00.131Z,14.57
2023-01-21T07:56:08.357Z,21.00
2023-01-21T07:58:10.825Z,5.63
2023-01-21T08:00:12.953Z,11.68
2023-01-21T08:02:14.540Z,7.47
2023-01-21T08:04:16.531Z,12.35
2023-01-21T08:06:18.089Z,17.48
2023-01-21T08:08:19.572Z,15.05
2023-01-21T08:10:22.266Z,17.05
2023-01-21T08:12:26.374Z,9.68
2023-01-21T08:14:28.594Z,11.93
2023-01-21T08:16:30.161Z,83.13
2023-01-21T08:18:31.890Z,33.63
2023-01-21T08:20:33.471Z,16.65
2023-01-21T08:22:35.092Z,34.92
2023-01-21T08:24:36.633Z,37.50
2023-01-21T08:26:38.157Z,16.95
2023-01-21T08:28:40.026Z,26.52
2023-01-21T08:30:41.712Z,13.95
2023-01-21T08:32:43.332Z,34.78
2023-01-21T08:34:44.870Z,13.80
2023-01-21T08:36:46.495Z,15.75
2023-01-21T08:38:48.842Z,15.13
2023-01-21T08:40:50.422Z,11.27
2023-01-21T08:42:52.908Z,14.98
2023-01-21T08:44:54.420Z,12.65
2023-01-21T08:46:56.437Z,12.40
2023-01-21T08:48:58.099Z,11.45
2023-01-21T08:51:00.639Z,23.08
2023-01-21T08:53:02.201Z,18.35
2023-01-21T08:55:03.881Z,21.08
2023-01-21T08:57:05.432Z,44.80
2023-01-21T08:59:07.230Z,26.13
2023-01-21T09:01:11.453Z,15.65
2023-01-21T09:03:17.014Z,30.98
2023-01-21T09:05:19.096Z,26.67
2023-01-21T09:07:20.774Z,41.83
2023-01-21T09:09:22.302Z,28.88
2023-01-21T09:11:26.396Z,59.67
2023-01-21T09:13:29.355Z,31.75
2023-01-21T09:15:31.002Z,54.50
2023-01-21T09:17:32.599Z,21.02
2023-01-21T09:19:34.151Z,24.23
2023-01-21T09:21:35.867Z,18.13
2023-01-21T09:23:38.373Z,34.83
2023-01-21T09:25:39.880Z,29.73
2023-01-21T09:27:41.393Z,19.38
2023-01-21T09:29:42.921Z,29.10
2023-01-21T09:31:44.485Z,53.33
2023-01-21T09:33:49.065Z,64.15
2023-01-21T09:35:59.152Z,81.88
2023-01-21T09:38:00.692Z,97.95
2023-01-21T09:40:02.194Z,35.58
2023-01-21T09:42:03.857Z,22.50
2023-01-21T09:44:12.544Z,26.48
2023-01-21T09:46:43.808Z,20.83
2023-01-21T09:48:48.390Z,18.58
2023-01-21T09:50:51.153Z,40.35
2023-01-21T09:52:59.447Z,36.20
2023-01-21T09:55:02.446Z,31.65
2023-01-21T09:57:31.312Z,56.30
2023-01-21T09:59:33.790Z,51.67
2023-01-21T10:01:38.746Z,53.10
2023-01-21T10:03:52.591Z,60.08
2023-01-21T10:06:09.698Z,58.30
2023-01-21T10:08:39.088Z,62.28
2023-01-21T10:10:57.787Z,36.70
2023-01-21T10:13:02.203Z,44.90
2023-01-21T10:15:18.817Z,116.00
2023-01-21T10:17:47.639Z,67.55
2023-01-21T10:19:55.071Z,157.68
2023-01-21T10:22:04.171Z,42.97
2023-01-21T10:24:38.798Z,41.00
2023-01-21T10:26:43.502Z,36.10
2023-01-21T10:28:50.736Z,54.75
2023-01-21T10:30:55.185Z,77.75
2023-01-21T10:32:56.855Z,80.15
2023-01-21T10:34:58.586Z,124.95
2023-01-21T10:37:02.978Z,154.25
2023-01-21T10:39:18.510Z,123.15
2023-01-21T10:41:41.711Z,128.98
2023-01-21T10:43:50.562Z,149.38
2023-01-21T10:46:12.219Z,167.93
2023-01-21T10:48:28.793Z,158.27
2023-01-21T10:50:47.082Z,150.00
2023-01-21T10:53:12.108Z,118.05
2023-01-21T10:55:38.318Z,123.03
2023-01-21T10:58:03.796Z,99.80
2023-01-21T11:00:18.623Z,208.00
2023-01-21T11:02:27.484Z,177.02
2023-01-21T11:04:29.507Z,91.57
2023-01-21T11:06:33.403Z,154.52
2023-01-21T11:08:35.228Z,268.02
2023-01-21T11:10:36.778Z,697.83
2023-01-21T11:12:38.354Z,305.33
2023-01-21T11:14:39.849Z,172.55
2023-01-21T11:16:45.381Z,407.88
2023-01-21T11:18:47.058Z,120.15
2023-01-21T11:20:48.626Z,79.18
2023-01-21T11:22:50.576Z,75.30
2023-01-21T11:24:52.791Z,56.72
2023-01-21T11:26:57.856Z,193.80
2023-01-21T11:29:11.288Z,71.45
2023-01-21T11:31:15.846Z,53.30
2023-01-21T11:33:25.147Z,32.50
2023-01-21T11:35:26.984Z,100.68
2023-01-21T11:37:30.602Z,68.30
2023-01-21T11:39:36.762Z,32.67
2023-01-21T11:41:38.509Z,55.60
2023-01-21T11:43:41.270Z,37.50
2023-01-21T11:45:43.610Z,77.07
2023-01-21T11:47:50.818Z,37.60
2023-01-21T11:49:52.815Z,32.95
2023-01-21T11:52:26.624Z,34.53
2023-01-21T11:54:28.134Z,39.80
2023-01-21T11:56:29.727Z,38.67
2023-01-21T11:58:36.516Z,37.78
2023-01-21T12:00:38.533Z,25.55
2023-01-21T12:02:46.280Z,40.20
2023-01-21T12:04:53.719Z,65.10
2023-01-21T12:06:58.733Z,93.78
2023-01-21T12:09:03.579Z,155.20
2023-01-21T12:11:07.369Z,81.97
2023-01-21T12:13:17.712Z,38.70
2023-01-21T12:15:39.152Z,53.90
2023-01-21T12:18:03.008Z,247.98
2023-01-21T12:20:27.288Z,59.97
2023-01-21T12:23:19.515Z,44.58
2023-01-21T12:26:08.381Z,116.10
2023-01-21T12:28:25.097Z,34.33
2023-01-21T12:30:51.075Z,72.85
2023-01-21T12:33:01.757Z,38.70
2023-01-21T12:35:08.320Z,65.20
2023-01-21T12:37:13.133Z,117.40
2023-01-21T12:39:33.679Z,401.85
2023-01-21T12:41:38.222Z,74.63
2023-01-21T12:43:49.985Z,135.60
2023-01-21T12:46:01.266Z,127.40
2023-01-21T12:48:23.050Z,44.75
2023-01-21T12:50:33.201Z,56.35
2023-01-21T12:52:43.972Z,82.70
2023-01-21T12:55:21.984Z,45.60
2023-01-21T12:57:36.447Z,32.72
2023-01-21T12:59:49.187Z,49.38
2023-01-21T13:01:53.416Z,63.72
2023-01-21T13:04:17.454Z,50.92
2023-01-21T13:06:33.571Z,48.17
2023-01-21T13:09:24.998Z,68.30
2023-01-21T13:11:34.989Z,77.47
2023-01-21T13:13:45.240Z,105.25
2023-01-21T13:15:51.233Z,91.60
2023-01-21T13:17:58.793Z,86.05
2023-01-21T13:20:00.503Z,68.78
2023-01-21T13:22:14.209Z,72.25
2023-01-21T13:24:24.795Z,457.65
2023-01-21T13:26:38.305Z,355.15
2023-01-21T13:28:48.816Z,121.05
2023-01-21T13:31:12.053Z,134.60
2023-01-21T13:33:16.395Z,72.80
2023-01-21T13:35:42.596Z,146.50
2023-01-21T13:38:09.893Z,240.98
2023-01-21T13:40:39.568Z,249.48
2023-01-21T13:42:53.076Z,134.50
2023-01-21T13:45:14.818Z,181.98
2023-01-21T13:47:44.526Z,156.27
2023-01-21T13:52:22.644Z,180.43
2023-01-21T13:54:29.556Z,161.82
2023-01-21T13:56:48.713Z,284.80
2023-01-21T13:59:01.578Z,178.80
2023-01-21T14:01:12.080Z,131.77
2023-01-21T14:03:45.160Z,262.55
2023-01-21T14:05:55.769Z,289.38
2023-01-21T14:08:03.949Z,213.73
2023-01-21T14:10:31.490Z,103.78
2023-01-21T14:12:53.524Z,165.35
2023-01-21T14:15:28.473Z,112.40
2023-01-21T14:18:18.527Z,113.65
2023-01-21T14:20:44.429Z,107.40
2023-01-21T14:23:06.496Z,118.28
2023-01-21T14:25:16.911Z,106.03
2023-01-21T14:27:18.420Z,226.55
2023-01-21T14:29:38.132Z,151.77
2023-01-21T14:31:44.704Z,168.77
2023-01-21T14:34:12.461Z,278.90
2023-01-21T14:36:23.103Z,145.50
2023-01-21T14:39:01.074Z,293.15
2023-01-21T14:41:08.179Z,249.18
2023-01-21T14:43:19.404Z,188.90
2023-01-21T14:45:25.723Z,708.20
2023-01-21T14:47:30.240Z,355.50
2023-01-21T14:49:44.650Z,339.67
2023-01-21T14:51:50.056Z,156.20
2023-01-21T14:53:57.076Z,129.25
2023-01-21T14:56:17.471Z,142.70
2023-01-21T14:58:27.730Z,195.63
2023-01-21T15:00:32.956Z,236.27
2023-01-21T15:03:06.965Z,249.52
2023-01-21T15:05:11.209Z,221.10
2023-01-21T15:07:19.246Z,265.50
2023-01-21T15:09:47.108Z,320.08
2023-01-21T15:11:55.406Z,214.82
2023-01-21T15:14:21.801Z,137.70
2023-01-21T15:16:35.647Z,119.30
2023-01-21T15:18:40.336Z,117.85
2023-01-21T15:20:49.968Z,98.35
2023-01-21T15:25:14.462Z,161.82
2023-01-21T15:27:16.051Z,164.35
2023-01-21T15:29:35.495Z,170.63
2023-01-21T15:31:43.471Z,138.65
2023-01-21T15:33:57.238Z,155.20
2023-01-21T15:36:00.282Z,151.23
2023-01-21T15:38:07.822Z,134.35
2023-01-21T15:40:18.610Z,130.43
2023-01-21T15:42:51.443Z,130.82
2023-01-21T15:45:41.151Z,136.10
2023-01-21T15:48:05.620Z,228.20
2023-01-21T15:50:27.902Z,209.15
2023-01-21T15:53:14.557Z,96.53
2023-01-21T15:55:37.468Z,75.60
2023-01-21T15:58:12.362Z,105.25
2023-01-21T16:00:31.636Z,65.53
2023-01-21T16:02:51.265Z,84.07
2023-01-21T16:05:24.613Z,204.48
2023-01-21T16:07:49.368Z,150.00
2023-01-21T16:10:15.070Z,116.35
2023-01-21T16:12:35.074Z,92.25
2023-01-21T16:14:45.675Z,75.60
2023-01-21T16:17:03.129Z,79.43
2023-01-21T16:19:12.011Z,83.78
2023-01-21T16:21:14.155Z,71.50
2023-01-21T16:23:18.734Z,92.53
2023-01-21T16:25:23.372Z,82.78
2023-01-21T16:27:28.142Z,66.93
2023-01-21T16:29:37.774Z,58.92
2023-01-21T16:33:54.559Z,62.38
2023-01-21T16:36:00.834Z,67.28
2023-01-21T16:38:02.403Z,65.47
2023-01-21T16:40:09.878Z,71.40
2023-01-21T16:42:24.626Z,69.68
2023-01-21T16:44:26.220Z,71.25
2023-01-21T16:46:37.635Z,70.57
2023-01-21T16:48:39.799Z,84.65
2023-01-21T16:50:47.772Z,108.60
2023-01-21T16:52:50.840Z,116.35
2023-01-21T16:54:55.202Z,237.68
2023-01-21T16:57:02.391Z,208.15
2023-01-21T16:59:03.890Z,150.23
2023-01-21T17:01:10.976Z,206.43
2023-01-21T17:03:12.714Z,179.05
2023-01-21T17:05:14.584Z,169.13
2023-01-21T17:07:20.573Z,181.27
2023-01-21T17:09:32.607Z,102.55
2023-01-21T17:11:36.592Z,114.70
2023-01-21T17:13:43.221Z,121.80
2023-01-21T17:15:57.332Z,151.15
2023-01-21T17:18:00.448Z,134.55
2023-01-21T17:20:02.629Z,137.55
2023-01-21T17:22:14.338Z,118.82
2023-01-21T17:24:28.641Z,150.40
2023-01-21T17:26:41.942Z,127.97
2023-01-21T17:28:59.650Z,182.00
2023-01-21T17:31:16.475Z,254.95
2023-01-21T17:33:30.525Z,157.93
2023-01-21T17:35:33.556Z,149.30
2023-01-21T17:37:59.705Z,108.90
2023-01-21T17:40:01.533Z,168.65
2023-01-21T17:42:04.596Z,235.98
2023-01-21T17:44:17.017Z,253.35
2023-01-21T17:46:25.442Z,243.00
2023-01-21T17:48:32.435Z,202.20
2023-01-21T17:50:34.211Z,296.20
2023-01-21T17:52:35.738Z,372.90
2023-01-21T17:54:37.423Z,203.40
2023-01-21T17:56:51.345Z,258.83
2023-01-21T17:58:52.954Z,136.43
2023-01-21T18:00:54.619Z,162.48
2023-01-21T18:02:57.336Z,182.82
2023-01-21T18:04:59.032Z,163.85
2023-01-21T18:07:00.700Z,158.35
2023-01-21T18:09:02.908Z,154.45
2023-01-21T18:11:04.589Z,171.15
2023-01-21T18:13:06.337Z,171.20
2023-01-21T18:15:13.035Z,155.48
2023-01-21T18:17:20.279Z,180.77
2023-01-21T18:19:37.359Z,139.60
2023-01-21T18:21:38.900Z,105.43
2023-01-21T18:23:40.442Z,99.68
2023-01-21T18:25:42.669Z,150.38
2023-01-21T18:27:46.908Z,184.23
2023-01-21T18:29:48.555Z,168.45
2023-01-21T18:31:52.269Z,153.02
2023-01-21T18:33:55.103Z,164.70
2023-01-21T18:35:56.868Z,174.45
2023-01-21T18:37:58.419Z,212.77
2023-01-21T18:39:59.914Z,193.98
2023-01-21T18:42:01.578Z,182.77
2023-01-21T18:44:03.249Z,233.82
2023-01-21T18:46:11.282Z,286.48
2023-01-21T18:48:17.402Z,262.27
2023-01-21T18:50:21.733Z,241.23
2023-01-21T18:52:23.483Z,303.92
2023-01-21T18:54:25.017Z,313.15
2023-01-21T18:56:26.681Z,270.80
2023-01-21T18:58:28.214Z,305.05
2023-01-21T19:00:33.344Z,240.20
2023-01-21T19:02:34.901Z,219.10
2023-01-21T19:04:36.572Z,226.48
2023-01-21T19:06:38.315Z,202.23
2023-01-21T19:08:40.190Z,191.00
2023-01-21T19:10:41.799Z,145.85
2023-01-21T19:12:47.128Z,171.25
2023-01-21T19:14:49.419Z,191.65
2023-01-21T19:16:51.061Z,190.63
2023-01-21T19:18:52.630Z,216.80
2023-01-21T19:20:54.992Z,248.88
2023-01-21T19:22:56.706Z,217.15
2023-01-21T19:24:58.262Z,577.30
2023-01-21T19:27:00.576Z,414.13
2023-01-21T19:29:04.708Z,298.98
2023-01-21T19:31:06.617Z,316.23
2023-01-21T19:33:09.224Z,379.75
2023-01-21T19:35:14.471Z,418.10
2023-01-21T19:37:19.611Z,323.65
2023-01-21T19:39:25.694Z,328.85
2023-01-21T19:41:27.297Z,255.00
2023-01-21T19:43:29.463Z,248.75
2023-01-21T19:45:31.173Z,249.70
2023-01-21T19:47:32.774Z,293.38
2023-01-21T19:49:34.488Z,304.75
2023-01-21T19:51:36.097Z,287.70
2023-01-21T19:53:37.704Z,296.45
2023-01-21T19:55:39.753Z,255.40
2023-01-21T19:57:41.596Z,243.27
2023-01-21T19:59:49.652Z,231.15
2023-01-21T20:01:51.205Z,235.35
2023-01-21T20:04:00.117Z,213.70
2023-01-21T20:06:05.250Z,228.38
2023-01-21T20:08:11.462Z,272.15
2023-01-21T20:10:18.288Z,193.98
2023-01-21T20:12:19.968Z,166.88
2023-01-21T20:14:21.651Z,162.77
2023-01-21T20:16:24.248Z,150.98
2023-01-21T20:18:28.826Z,133.95
2023-01-21T20:20:32.705Z,140.80
2023-01-21T20:22:34.219Z,135.20
2023-01-21T20:24:35.797Z,186.80
2023-01-21T20:26:38.559Z,150.65
2023-01-21T20:28:44.481Z,180.00
2023-01-21T20:30:47.323Z,168.18
2023-01-21T20:32:49.242Z,177.10
2023-01-21T20:34:50.870Z,183.50
2023-01-21T20:36:52.791Z,193.82
2023-01-21T20:38:55.196Z,178.80
2023-01-21T20:40:57.418Z,210.88
2023-01-21T20:42:59.056Z,179.65
2023-01-21T20:45:00.586Z,192.68
2023-01-21T20:47:02.220Z,242.23
2023-01-21T20:49:03.971Z,223.68
2023-01-21T20:51:05.993Z,315.63
2023-01-21T20:53:11.177Z,268.55
2023-01-21T20:55:13.966Z,260.13
2023-01-21T20:57:15.500Z,259.83
2023-01-21T20:59:17.045Z,274.33
2023-01-21T21:01:21.773Z,324.17
2023-01-21T21:03:23.309Z,294.55
2023-01-21T21:05:27.608Z,297.67
2023-01-21T21:07:29.380Z,292.95
2023-01-21T21:09:36.176Z,238.77
2023-01-21T21:11:37.718Z,223.57
2023-01-21T21:13:39.297Z,347.88
2023-01-21T21:15:41.937Z,216.25
2023-01-21T21:17:49.544Z,184.00
2023-01-21T21:19:51.101Z,169.77
2023-01-21T21:21:52.661Z,163.52
2023-01-21T21:23:54.206Z,237.40
2023-01-21T21:25:55.767Z,380.90
2023-01-21T21:27:58.166Z,345.67
2023-01-21T21:29:59.678Z,298.73
2023-01-21T21:32:02.705Z,259.83
2023-01-21T21:34:04.377Z,209.15
2023-01-21T21:36:10.368Z,216.82
2023-01-21T21:38:15.589Z,199.98
2023-01-21T21:40:18.818Z,179.13
2023-01-21T21:42:38.936Z,139.65
2023-01-21T21:44:43.926Z,210.15
2023-01-21T21:47:04.141Z,191.77
2023-01-21T21:49:05.654Z,160.30
2023-01-21T21:51:09.690Z,194.23
2023-01-21T21:53:11.736Z,164.80
2023-01-21T21:55:15.544Z,145.88
2023-01-21T21:57:17.222Z,159.75
2023-01-21T22:00:15.143Z,176.00
2023-01-21T22:02:16.719Z,131.48
2023-01-21T22:04:18.308Z,148.68
2023-01-21T22:06:22.241Z,151.52
2023-01-21T22:08:24.999Z,109.40
2023-01-21T22:10:26.629Z,120.35
2023-01-21T22:12:28.141Z,141.95
2023-01-21T22:14:29.632Z,171.35
2023-01-21T22:16:31.637Z,125.82
2023-01-21T22:18:33.982Z,109.82
2023-01-21T22:20:35.509Z,114.82
2023-01-21T22:22:37.177Z,110.47
2023-01-21T22:24:38.756Z,92.07
2023-01-21T22:26:40.350Z,98.47
2023-01-21T22:28:43.457Z,101.03
2023-01-21T22:30:45.091Z,115.72
2023-01-21T22:32:46.609Z,106.00
2023-01-21T22:34:48.184Z,100.93
2023-01-21T22:36:49.707Z,121.10
2023-01-21T22:38:51.977Z,149.40
2023-01-21T22:40:54.572Z,120.47
2023-01-21T22:42:56.091Z,100.30
2023-01-21T22:44:57.664Z,86.50
2023-01-21T22:46:59.194Z,82.65
2023-01-21T22:49:00.810Z,90.60
2023-01-21T22:51:02.420Z,83.22
2023-01-21T22:53:03.974Z,78.60
2023-01-21T22:55:06.105Z,88.05
2023-01-21T22:57:07.657Z,116.15
2023-01-21T22:59:09.422Z,99.22
2023-01-21T23:01:31.023Z,119.03
2023-01-21T23:03:32.742Z,106.72
2023-01-21T23:05:35.718Z,80.82
2023-01-21T23:07:37.336Z,88.72
2023-01-21T23:09:38.822Z,88.05
2023-01-21T23:11:41.535Z,78.88
2023-01-21T23:13:43.232Z,75.28
2023-01-21T23:15:46.819Z,74.15
2023-01-21T23:17:48.633Z,68.95
2023-01-21T23:19:50.138Z,84.70
2023-01-21T23:21:51.670Z,91.22
2023-01-21T23:23:53.191Z,72.97
2023-01-21T23:25:54.704Z,72.00
2023-01-21T23:27:56.283Z,57.78
2023-01-21T23:29:57.863Z,73.20
2023-01-21T23:31:59.549Z,79.35
2023-01-21T23:34:03.288Z,68.22
2023-01-21T23:36:05.065Z,47.22
2023-01-21T23:38:06.592Z,54.67
2023-01-21T23:40:08.731Z,67.70
2023-01-21T23:42:10.227Z,77.93
2023-01-21T23:44:11.861Z,76.80
2023-01-21T23:46:16.621Z,69.30
2023-01-21T23:48:18.321Z,59.78
2023-01-21T23:50:20.111Z,68.43
2023-01-21T23:52:21.811Z,60.50
2023-01-21T23:54:23.524Z,65.40
2023-01-21T23:56:25.693Z,79.53
2023-01-21T23:58:27.218Z,89.90
